TimeEDT,TemperatureF,Dew PointF,Humidity,Sea Level PressureIn,VisibilityMPH,Wind Direction,Wind SpeedMPH,Gust SpeedMPH,PrecipitationIn,Events,Conditions,WindDirDegrees,DateUTC
12:32 AM,53.6,51.8,94,29.85,6.0,WNW,6.9,16.1,0.00,Rain,Light Rain,300,2012-10-15 04:32:00
12:53 AM,53.1,50.0,89,29.84,10.0,WNW,6.9,17.3,0.00,,Overcast,300,2012-10-15 04:53:00
1:53 AM,54.0,48.0,80,29.84,10.0,WNW,9.2,-,N/A,,Overcast,290,2012-10-15 05:53:00
2:53 AM,52.0,44.1,74,29.85,10.0,WNW,8.1,21.9,N/A,,Overcast,290,2012-10-15 06:53:00
3:11 AM,51.8,44.6,76,29.86,10.0,West,11.5,18.4,N/A,,Overcast,280,2012-10-15 07:11:00
3:53 AM,52.0,46.0,80,29.84,10.0,West,8.1,-,N/A,,Overcast,260,2012-10-15 07:53:00
4:53 AM,51.1,44.1,77,29.85,10.0,WNW,9.2,16.1,N/A,,Overcast,300,2012-10-15 08:53:00
5:43 AM,48.2,44.6,87,29.86,10.0,WNW,6.9,-,N/A,,Scattered Clouds,290,2012-10-15 09:43:00
5:53 AM,48.9,44.1,83,29.86,10.0,West,6.9,-,N/A,,Partly Cloudy,280,2012-10-15 09:53:00
6:53 AM,48.9,43.0,80,29.88,10.0,WNW,6.9,-,N/A,,Mostly Cloudy,290,2012-10-15 10:53:00
7:17 AM,48.2,42.8,82,29.89,10.0,WNW,6.9,-,N/A,,Scattered Clouds,290,2012-10-15 11:17:00
7:53 AM,45.0,42.1,90,29.90,10.0,West,3.5,-,N/A,,Clear,280,2012-10-15 11:53:00
8:53 AM,46.9,43.0,86,29.92,10.0,West,5.8,-,N/A,,Clear,270,2012-10-15 12:53:00
9:53 AM,50.0,42.1,74,29.93,10.0,West,9.2,-,N/A,,Clear,280,2012-10-15 13:53:00
10:53 AM,53.1,41.0,64,29.94,10.0,WNW,11.5,19.6,N/A,,Clear,300,2012-10-15 14:53:00
11:53 AM,55.9,39.9,55,29.94,10.0,West,9.2,18.4,N/A,,Clear,280,2012-10-15 15:53:00
12:53 PM,57.0,39.0,51,29.96,10.0,WNW,9.2,18.4,N/A,,Clear,290,2012-10-15 16:53:00
1:53 PM,60.1,36.0,41,29.95,10.0,Variable,5.8,17.3,N/A,,Clear,0,2012-10-15 17:53:00
2:53 PM,61.0,36.0,39,29.94,10.0,WNW,11.5,-,N/A,,Clear,300,2012-10-15 18:53:00
3:53 PM,61.0,35.1,38,29.94,10.0,WNW,8.1,18.4,N/A,,Clear,300,2012-10-15 19:53:00
4:53 PM,62.1,35.1,37,29.94,10.0,Variable,5.8,-,N/A,,Clear,0,2012-10-15 20:53:00
5:53 PM,61.0,36.0,39,29.95,10.0,WNW,11.5,16.1,N/A,,Clear,300,2012-10-15 21:53:00
6:53 PM,57.0,36.0,45,29.95,10.0,West,5.8,-,N/A,,Clear,280,2012-10-15 22:53:00
7:53 PM,50.0,39.0,66,29.96,10.0,Calm,Calm,-,N/A,,Clear,0,2012-10-15 23:53:00
8:53 PM,46.9,39.0,74,29.97,10.0,Calm,Calm,-,N/A,,Clear,0,2012-10-16 00:53:00
9:53 PM,45.0,39.9,82,29.97,10.0,Calm,Calm,-,N/A,,Clear,0,2012-10-16 01:53:00
10:53 PM,45.0,39.9,82,29.97,10.0,Calm,Calm,-,N/A,,Clear,0,2012-10-16 02:53:00
11:53 PM,45.0,41.0,86,29.98,10.0,Calm,Calm,-,N/A,,Clear,0,2012-10-16 03:53:00